Time;durP1;ratioP1;P1;durP2;ratioP2;P2;SDS_P1;SDS_P2;PMS_P1;PMS_P2;Temp;Humidity;BMP_temperature;BMP_pressure;BME280_temperature;BME280_humidity;BME280_pressure;Samples;Min_cycle;Max_cycle;Signal;HPM_P1;HPM_P2
2023/01/05 00:00:18;;;;;;;;;;;16.40;66.00;;;;;;5044274;28;19923;-89
2023/01/05 00:02:44;;;;;;;;;;;16.40;65.80;;;;;;5044606;28;19925;-90
2023/01/05 00:05:09;;;;;;;;;;;16.40;65.70;;;;;;5030608;28;19971;-87
2023/01/05 00:07:35;;;;;;;;;;;16.40;65.70;;;;;;5040144;28;19916;-89
2023/01/05 00:10:00;;;;;;;;;;;16.40;65.80;;;;;;5035778;28;19932;-90
2023/01/05 00:23:22;;;;;;;;;;;16.50;65.60;;;;;;5053160;28;19919;-89
2023/01/05 00:25:48;;;;;;;;;;;16.50;65.40;;;;;;5053843;28;19912;-88
2023/01/05 00:28:14;;;;;;;;;;;16.60;65.20;;;;;;5051270;28;19916;-88
2023/01/05 00:30:40;;;;;;;;;;;16.60;65.30;;;;;;5050171;28;19936;-88
2023/01/05 00:33:06;;;;;;;;;;;16.60;65.30;;;;;;5053312;28;19917;-88
2023/01/05 00:35:32;;;;;;;;;;;16.60;65.20;;;;;;5050110;28;19935;-87
2023/01/05 00:37:57;;;;;;;;;;;16.60;65.00;;;;;;5049774;28;20427;-90
2023/01/05 00:40:23;;;;;;;;;;;16.50;64.80;;;;;;5049355;28;19921;-91
2023/01/05 00:42:48;;;;;;;;;;;16.40;64.80;;;;;;5049340;28;19916;-88
2023/01/05 00:45:15;;;;;;;;;;;16.30;64.90;;;;;;5035105;28;20024;-86
2023/01/05 00:47:41;;;;;;;;;;;16.20;64.80;;;;;;5042539;28;19952;-87
2023/01/05 00:50:07;;;;;;;;;;;16.10;64.90;;;;;;5050872;28;19971;-88
2023/01/05 00:52:33;;;;;;;;;;;16.00;65.00;;;;;;5050225;28;20429;-88
2023/01/05 00:54:58;;;;;;;;;;;16.00;64.90;;;;;;5049072;28;20326;-89
2023/01/05 00:57:24;;;;;;;;;;;15.90;64.80;;;;;;5050364;28;19917;-88
2023/01/05 00:59:49;;;;;;;;;;;15.80;64.80;;;;;;5042164;28;19913;-87
2023/01/05 01:02:14;;;;;;;;;;;15.80;65.00;;;;;;5047136;28;19966;-88
2023/01/05 01:04:40;;;;;;;;;;;15.70;64.90;;;;;;5048828;28;20272;-90
2023/01/05 01:07:06;;;;;;;;;;;15.60;64.60;;;;;;5048557;28;20301;-87
2023/01/05 01:09:32;;;;;;;;;;;15.50;64.20;;;;;;5046370;28;19962;-90
2023/01/05 01:11:58;;;;;;;;;;;15.40;64.20;;;;;;5042434;28;20039;-87
2023/01/05 01:14:24;;;;;;;;;;;15.30;64.40;;;;;;5049524;28;20023;-88
2023/01/05 01:16:49;;;;;;;;;;;15.30;64.40;;;;;;5035149;28;20279;-87
2023/01/05 01:19:19;;;;;;;;;;;15.30;64.70;;;;;;5033578;28;19923;-91
2023/01/05 01:21:45;;;;;;;;;;;15.20;64.70;;;;;;5032572;28;19921;-90
2023/01/05 01:24:18;;;;;;;;;;;15.20;64.80;;;;;;5050176;28;19967;-87
2023/01/05 01:26:44;;;;;;;;;;;15.20;65.00;;;;;;5049283;28;19948;-89
2023/01/05 01:29:10;;;;;;;;;;;15.30;65.30;;;;;;5048986;28;19948;-87
2023/01/05 01:31:36;;;;;;;;;;;15.30;65.30;;;;;;5043060;28;19920;-87
2023/01/05 01:34:02;;;;;;;;;;;15.30;65.30;;;;;;5044090;28;20012;-89
2023/01/05 01:36:27;;;;;;;;;;;15.30;65.50;;;;;;5044637;28;20011;-89
2023/01/05 01:38:53;;;;;;;;;;;15.30;65.50;;;;;;5039136;28;19916;-88
2023/01/05 01:41:18;;;;;;;;;;;15.50;65.70;;;;;;5029380;28;19917;-91
2023/01/05 01:43:48;;;;;;;;;;;15.50;65.70;;;;;;5031072;28;20315;-88
2023/01/05 01:46:14;;;;;;;;;;;15.60;65.70;;;;;;5030307;28;19953;-91
2023/01/05 01:48:41;;;;;;;;;;;15.70;65.70;;;;;;5050058;28;20265;-88
2023/01/05 01:51:09;;;;;;;;;;;15.70;65.60;;;;;;5053252;28;19920;-90
2023/01/05 01:53:41;;;;;;;;;;;15.80;65.40;;;;;;5044204;28;19962;-90
2023/01/05 01:56:08;;;;;;;;;;;15.80;65.30;;;;;;5051356;28;20591;-88
2023/01/05 01:58:33;;;;;;;;;;;15.70;65.20;;;;;;5052784;28;19912;-88
2023/01/05 02:01:02;;;;;;;;;;;15.80;65.10;;;;;;5053813;28;19920;-88
2023/01/05 02:03:28;;;;;;;;;;;15.80;65.10;;;;;;5053901;28;19921;-91
2023/01/05 02:05:53;;;;;;;;;;;15.80;65.10;;;;;;5051871;28;20287;-90
2023/01/05 02:08:24;;;;;;;;;;;15.80;65.20;;;;;;5052278;28;20360;-90
2023/01/05 02:11:08;;;;;;;;;;;15.80;65.20;;;;;;5033710;28;19913;-88
2023/01/05 02:13:49;;;;;;;;;;;15.90;65.20;;;;;;5046305;28;19924;-90
2023/01/05 02:16:26;;;;;;;;;;;15.90;65.10;;;;;;5037072;28;20016;-90
2023/01/05 02:19:02;;;;;;;;;;;15.90;65.30;;;;;;5046469;28;20322;-89
2023/01/05 02:21:54;;;;;;;;;;;16.00;65.20;;;;;;5035868;28;20012;-89
2023/01/05 02:24:34;;;;;;;;;;;16.00;65.10;;;;;;5041279;28;19917;-90
2023/01/05 02:27:19;;;;;;;;;;;16.10;65.20;;;;;;5046351;28;19924;-87
2023/01/05 02:29:48;;;;;;;;;;;16.00;65.10;;;;;;5051096;28;19936;-90
2023/01/05 02:32:20;;;;;;;;;;;16.10;65.10;;;;;;5035331;28;19917;-89
2023/01/05 02:34:52;;;;;;;;;;;16.10;65.10;;;;;;5051549;28;19928;-90
2023/01/05 02:37:23;;;;;;;;;;;16.10;65.00;;;;;;5051642;28;20629;-88
2023/01/05 02:39:49;;;;;;;;;;;16.20;65.00;;;;;;5052053;28;19916;-88
2023/01/05 02:42:24;;;;;;;;;;;16.20;64.90;;;;;;5051655;28;19975;-88
2023/01/05 02:44:50;;;;;;;;;;;16.20;64.90;;;;;;5031599;28;19913;-90
2023/01/05 02:47:24;;;;;;;;;;;16.20;64.90;;;;;;5034860;28;19967;-89
2023/01/05 02:49:51;;;;;;;;;;;16.20;64.70;;;;;;5052206;28;19983;-89
2023/01/05 02:52:17;;;;;;;;;;;16.10;64.70;;;;;;5052532;28;20347;-88
2023/01/05 02:54:49;;;;;;;;;;;16.10;64.70;;;;;;5033520;28;19932;-88
2023/01/05 02:57:18;;;;;;;;;;;16.10;64.50;;;;;;5045086;28;19921;-88
2023/01/05 02:59:49;;;;;;;;;;;16.00;64.60;;;;;;5050870;28;19932;-88
2023/01/05 03:02:21;;;;;;;;;;;16.00;64.50;;;;;;5045900;28;19939;-88
2023/01/05 03:04:49;;;;;;;;;;;16.00;64.70;;;;;;5053246;28;20322;-88
2023/01/05 03:07:17;;;;;;;;;;;16.00;64.80;;;;;;5041225;28;20268;-90
2023/01/05 03:09:43;;;;;;;;;;;16.00;64.80;;;;;;5038068;28;19921;-88
2023/01/05 03:15:10;;;;;;;;;;;16.00;64.80;;;;;;5036227;28;20027;-90
2023/01/05 03:17:45;;;;;;;;;;;16.00;64.90;;;;;;5042870;28;19967;-88
2023/01/05 03:20:12;;;;;;;;;;;15.90;64.70;;;;;;5034222;28;19971;-90
2023/01/05 03:36:57;;;;;;;;;;;15.60;65.30;;;;;;5032870;28;19958;-87
2023/01/05 03:39:25;;;;;;;;;;;15.50;65.40;;;;;;5031480;28;19917;-90
2023/01/05 03:41:51;;;;;;;;;;;15.50;65.40;;;;;;5032500;28;19920;-87
2023/01/05 03:44:16;;;;;;;;;;;15.50;65.40;;;;;;5032626;28;19917;-87
2023/01/05 03:46:42;;;;;;;;;;;15.40;65.40;;;;;;5032259;28;20406;-87
2023/01/05 03:49:07;;;;;;;;;;;15.40;65.40;;;;;;5032655;28;19917;-90
2023/01/05 03:51:33;;;;;;;;;;;15.40;65.50;;;;;;5033050;28;19909;-88
2023/01/05 03:53:58;;;;;;;;;;;15.40;65.60;;;;;;5033348;28;19917;-88
2023/01/05 03:56:24;;;;;;;;;;;15.40;65.70;;;;;;5052978;28;19948;-88
2023/01/05 03:58:49;;;;;;;;;;;15.30;65.60;;;;;;5050485;28;19963;-90
2023/01/05 04:01:14;;;;;;;;;;;15.40;65.60;;;;;;5050364;28;19951;-90
2023/01/05 04:03:40;;;;;;;;;;;15.40;65.80;;;;;;5052311;28;19964;-90
2023/01/05 04:06:06;;;;;;;;;;;15.30;65.70;;;;;;5055748;28;19916;-87
2023/01/05 04:08:31;;;;;;;;;;;15.30;65.80;;;;;;5045619;28;20394;-87
2023/01/05 04:11:08;;;;;;;;;;;15.30;65.80;;;;;;5050081;28;20362;-91
2023/01/05 04:13:33;;;;;;;;;;;15.30;65.80;;;;;;5053567;28;20347;-88
2023/01/05 04:15:59;;;;;;;;;;;15.30;65.90;;;;;;5042090;28;19948;-90
2023/01/05 04:18:24;;;;;;;;;;;15.40;65.80;;;;;;5044110;28;20359;-89
2023/01/05 04:20:50;;;;;;;;;;;15.40;65.70;;;;;;5051183;28;19932;-87
2023/01/05 04:23:15;;;;;;;;;;;15.40;65.70;;;;;;5051243;28;19935;-88
2023/01/05 04:25:41;;;;;;;;;;;15.50;65.70;;;;;;5040214;28;19913;-89
2023/01/05 04:28:06;;;;;;;;;;;15.50;65.80;;;;;;5031096;28;19909;-88
2023/01/05 04:30:32;;;;;;;;;;;15.50;65.70;;;;;;5029870;28;19967;-88
2023/01/05 04:32:57;;;;;;;;;;;15.50;65.60;;;;;;5031809;28;19909;-89
2023/01/05 04:35:22;;;;;;;;;;;15.60;65.50;;;;;;5050858;28;19936;-88
2023/01/05 04:37:48;;;;;;;;;;;15.50;65.50;;;;;;5051806;28;20367;-88
2023/01/05 04:40:13;;;;;;;;;;;15.60;65.50;;;;;;5050528;28;19921;-87
2023/01/05 04:42:39;;;;;;;;;;;15.60;65.30;;;;;;5040919;28;19909;-87
2023/01/05 04:45:04;;;;;;;;;;;15.50;65.50;;;;;;5031478;28;20437;-91
2023/01/05 04:47:30;;;;;;;;;;;15.50;65.50;;;;;;5033238;28;19909;-90
2023/01/05 04:49:55;;;;;;;;;;;15.50;65.40;;;;;;5034106;28;20264;-90
2023/01/05 04:52:21;;;;;;;;;;;15.50;65.50;;;;;;5030857;28;19909;-88
2023/01/05 04:54:46;;;;;;;;;;;15.50;65.40;;;;;;5031007;28;19925;-87
2023/01/05 04:57:12;;;;;;;;;;;15.50;65.50;;;;;;5031759;28;20375;-87
2023/01/05 04:59:37;;;;;;;;;;;15.50;65.50;;;;;;5034438;28;19963;-90
2023/01/05 05:02:03;;;;;;;;;;;15.50;65.50;;;;;;5031332;28;19913;-88
2023/01/05 05:04:28;;;;;;;;;;;15.50;65.40;;;;;;5032693;28;19917;-89
2023/01/05 05:06:54;;;;;;;;;;;15.50;65.40;;;;;;5030752;28;20487;-87
2023/01/05 05:09:19;;;;;;;;;;;15.50;65.50;;;;;;5029365;28;20372;-88
2023/01/05 05:11:44;;;;;;;;;;;15.60;65.40;;;;;;5040892;28;19913;-89
2023/01/05 05:14:10;;;;;;;;;;;15.60;65.40;;;;;;5031433;28;19924;-89
2023/01/05 05:16:35;;;;;;;;;;;15.70;65.30;;;;;;5042214;28;19923;-87
2023/01/05 05:19:01;;;;;;;;;;;15.70;65.30;;;;;;5051026;28;19924;-88
2023/01/05 05:21:26;;;;;;;;;;;15.70;65.20;;;;;;5034257;28;19913;-87
2023/01/05 05:23:52;;;;;;;;;;;15.60;65.30;;;;;;5033216;28;20576;-90
2023/01/05 05:26:17;;;;;;;;;;;15.60;65.20;;;;;;5041201;28;19909;-88
2023/01/05 05:28:43;;;;;;;;;;;15.60;65.20;;;;;;5035696;28;19921;-87
2023/01/05 05:31:08;;;;;;;;;;;15.60;65.30;;;;;;5033877;28;19913;-88
2023/01/05 05:33:36;;;;;;;;;;;15.50;65.40;;;;;;5031500;28;19947;-88
2023/01/05 05:36:04;;;;;;;;;;;15.50;65.30;;;;;;5039515;28;21365;-89
2023/01/05 05:38:30;;;;;;;;;;;15.50;65.30;;;;;;5038318;28;19944;-90
2023/01/05 05:40:55;;;;;;;;;;;15.50;65.40;;;;;;5040804;28;19964;-90
2023/01/05 05:43:20;;;;;;;;;;;15.50;65.40;;;;;;5029248;28;19957;-88
2023/01/05 05:45:46;;;;;;;;;;;15.50;65.50;;;;;;5043258;28;19917;-87
2023/01/05 05:48:11;;;;;;;;;;;15.50;65.50;;;;;;5051034;28;19909;-88
2023/01/05 05:50:37;;;;;;;;;;;15.50;65.50;;;;;;5038275;28;19917;-90
2023/01/05 05:53:02;;;;;;;;;;;15.50;65.50;;;;;;5030887;28;19917;-89
2023/01/05 05:55:28;;;;;;;;;;;15.50;65.40;;;;;;5029092;28;19987;-89
2023/01/05 05:57:53;;;;;;;;;;;15.50;65.50;;;;;;5029367;28;19975;-88
2023/01/05 06:00:19;;;;;;;;;;;15.60;65.50;;;;;;5034325;28;19913;-89
2023/01/05 06:02:44;;;;;;;;;;;15.60;65.50;;;;;;5045535;28;19966;-88
2023/01/05 06:05:10;;;;;;;;;;;15.60;65.40;;;;;;5043553;28;19913;-87
2023/01/05 06:07:35;;;;;;;;;;;15.70;65.30;;;;;;5045221;28;20738;-87
2023/01/05 06:10:01;;;;;;;;;;;15.70;65.30;;;;;;5046368;28;19921;-87
2023/01/05 06:12:26;;;;;;;;;;;15.70;65.20;;;;;;5041162;28;20016;-90
2023/01/05 06:14:52;;;;;;;;;;;15.70;65.20;;;;;;5032402;28;20008;-89
2023/01/05 06:17:17;;;;;;;;;;;15.70;65.20;;;;;;5030052;28;19921;-89
2023/01/05 06:19:43;;;;;;;;;;;15.70;65.10;;;;;;5053986;28;19916;-90
2023/01/05 06:22:08;;;;;;;;;;;15.70;65.20;;;;;;5048182;28;19917;-91
2023/01/05 06:24:34;;;;;;;;;;;15.70;65.40;;;;;;5049712;28;19934;-88
2023/01/05 06:26:59;;;;;;;;;;;15.80;65.20;;;;;;5051666;28;19917;-89
2023/01/05 06:29:24;;;;;;;;;;;15.80;65.00;;;;;;5048589;28;19921;-90
2023/01/05 06:31:50;;;;;;;;;;;15.70;65.20;;;;;;5049281;28;19923;-90
2023/01/05 06:34:15;;;;;;;;;;;15.70;65.10;;;;;;5049770;28;19917;-88
2023/01/05 06:36:41;;;;;;;;;;;15.70;65.10;;;;;;5048599;28;20320;-90
2023/01/05 06:39:06;;;;;;;;;;;15.70;65.00;;;;;;5053514;28;19939;-87
2023/01/05 06:41:34;;;;;;;;;;;15.70;65.10;;;;;;5043319;28;19917;-88
2023/01/05 06:43:59;;;;;;;;;;;15.80;65.10;;;;;;5032341;28;19988;-90
2023/01/05 06:46:25;;;;;;;;;;;15.80;65.10;;;;;;5032670;28;20392;-87
2023/01/05 06:48:50;;;;;;;;;;;15.80;64.90;;;;;;5033704;28;19913;-90
2023/01/05 06:51:16;;;;;;;;;;;15.80;65.00;;;;;;5032099;28;19917;-88
2023/01/05 06:53:41;;;;;;;;;;;15.80;65.00;;;;;;5035229;28;19917;-90
2023/01/05 06:56:07;;;;;;;;;;;15.80;65.00;;;;;;5034198;28;19921;-91
2023/01/05 06:58:32;;;;;;;;;;;15.80;64.90;;;;;;5046944;28;19920;-91
2023/01/05 07:00:58;;;;;;;;;;;15.80;65.00;;;;;;5044678;28;19913;-88
2023/01/05 07:03:23;;;;;;;;;;;15.80;65.00;;;;;;5031764;28;20011;-89
2023/01/05 07:05:49;;;;;;;;;;;15.80;65.00;;;;;;5032013;28;20415;-90
2023/01/05 07:08:14;;;;;;;;;;;15.70;65.10;;;;;;5032848;28;20494;-87
2023/01/05 07:10:40;;;;;;;;;;;15.70;65.10;;;;;;5034121;28;19914;-88
2023/01/05 07:13:05;;;;;;;;;;;15.70;65.30;;;;;;5056944;28;20023;-88
2023/01/05 07:15:31;;;;;;;;;;;15.60;65.30;;;;;;5045305;28;19926;-89
2023/01/05 07:17:56;;;;;;;;;;;15.60;65.40;;;;;;5034031;28;19919;-90
2023/01/05 07:20:22;;;;;;;;;;;15.50;65.30;;;;;;5037699;28;19913;-91
2023/01/05 07:22:47;;;;;;;;;;;15.50;65.30;;;;;;5033297;28;19920;-89
2023/01/05 07:25:13;;;;;;;;;;;15.50;65.40;;;;;;5036228;28;19917;-88
2023/01/05 07:27:38;;;;;;;;;;;15.50;65.30;;;;;;5032207;28;19914;-91
2023/01/05 07:30:04;;;;;;;;;;;15.50;65.30;;;;;;5033682;28;19953;-88
2023/01/05 07:32:30;;;;;;;;;;;15.50;65.30;;;;;;5032630;28;20000;-87
2023/01/05 07:34:55;;;;;;;;;;;15.40;65.30;;;;;;5036478;28;19945;-87
2023/01/05 07:37:23;;;;;;;;;;;15.40;65.40;;;;;;5033520;28;19967;-88
2023/01/05 07:39:48;;;;;;;;;;;15.40;65.60;;;;;;5033184;28;19913;-90
2023/01/05 07:42:14;;;;;;;;;;;15.40;65.50;;;;;;5032006;28;19920;-90
2023/01/05 07:44:40;;;;;;;;;;;15.40;65.60;;;;;;5031520;28;20004;-88
2023/01/05 07:47:05;;;;;;;;;;;15.40;65.60;;;;;;5031157;28;19924;-91
2023/01/05 07:49:31;;;;;;;;;;;15.50;65.50;;;;;;5032841;28;20068;-90
2023/01/05 07:51:56;;;;;;;;;;;15.40;65.70;;;;;;5032689;28;20005;-86
2023/01/05 07:54:21;;;;;;;;;;;15.40;65.60;;;;;;5038477;28;19918;-90
2023/01/05 07:56:47;;;;;;;;;;;15.40;65.60;;;;;;5031902;28;19961;-92
2023/01/05 07:59:12;;;;;;;;;;;15.40;65.70;;;;;;5032562;28;19913;-91
2023/01/05 08:01:38;;;;;;;;;;;15.40;65.70;;;;;;5050760;28;19917;-90
2023/01/05 08:04:03;;;;;;;;;;;15.40;65.60;;;;;;5045665;28;19921;-88
2023/01/05 08:06:29;;;;;;;;;;;15.40;65.80;;;;;;5047415;28;19917;-90
2023/01/05 08:08:55;;;;;;;;;;;15.40;65.70;;;;;;5051704;28;19916;-90
2023/01/05 08:11:20;;;;;;;;;;;15.40;65.70;;;;;;5039794;28;19928;-90
2023/01/05 08:13:59;;;;;;;;;;;15.40;65.80;;;;;;5035387;28;20031;-88
2023/01/05 08:16:25;;;;;;;;;;;15.40;65.80;;;;;;5041119;28;19925;-88
2023/01/05 08:18:50;;;;;;;;;;;15.40;65.80;;;;;;5036079;28;20377;-92
2023/01/05 08:21:16;;;;;;;;;;;15.50;65.70;;;;;;5027394;28;19917;-90
2023/01/05 08:23:41;;;;;;;;;;;15.60;65.70;;;;;;5044233;28;20280;-88
2023/01/05 08:26:09;;;;;;;;;;;15.60;65.50;;;;;;5031639;28;19924;-91
2023/01/05 08:28:35;;;;;;;;;;;15.50;65.50;;;;;;5032748;28;19985;-90
2023/01/05 08:31:05;;;;;;;;;;;15.60;65.70;;;;;;5043865;28;19962;-89
2023/01/05 08:33:31;;;;;;;;;;;15.60;65.70;;;;;;5045434;28;19921;-90
2023/01/05 08:35:56;;;;;;;;;;;15.60;65.70;;;;;;5043370;28;19935;-87
2023/01/05 08:38:25;;;;;;;;;;;15.50;65.80;;;;;;5031548;28;20341;-89
2023/01/05 08:40:51;;;;;;;;;;;15.60;65.80;;;;;;5027511;28;20342;-88
2023/01/05 08:43:20;;;;;;;;;;;15.60;65.80;;;;;;5027668;28;20384;-90
2023/01/05 08:45:51;;;;;;;;;;;15.70;65.80;;;;;;5034668;28;19924;-90
2023/01/05 08:48:17;;;;;;;;;;;15.60;65.90;;;;;;5034567;28;19917;-90
2023/01/05 08:50:43;;;;;;;;;;;15.70;65.90;;;;;;5037509;28;20386;-89
2023/01/05 08:53:08;;;;;;;;;;;15.70;65.70;;;;;;5045687;28;19916;-89
2023/01/05 08:55:34;;;;;;;;;;;15.60;65.60;;;;;;5038852;28;19928;-89
2023/01/05 08:57:59;;;;;;;;;;;15.70;65.90;;;;;;5038122;28;19955;-90
2023/01/05 09:00:25;;;;;;;;;;;15.70;66.10;;;;;;5041659;28;20039;-90
2023/01/05 09:02:50;;;;;;;;;;;15.80;66.10;;;;;;5037650;28;20015;-91
2023/01/05 09:05:16;;;;;;;;;;;15.90;66.20;;;;;;5035828;28;20253;-89
2023/01/05 09:07:41;;;;;;;;;;;16.00;66.10;;;;;;5034916;28;19927;-90
2023/01/05 09:10:07;;;;;;;;;;;16.10;66.00;;;;;;5029269;28;19923;-89
2023/01/05 09:12:37;;;;;;;;;;;16.10;65.90;;;;;;5035044;28;19927;-90
2023/01/05 09:15:03;;;;;;;;;;;16.10;65.80;;;;;;5036469;28;19941;-90
2023/01/05 09:17:29;;;;;;;;;;;16.20;65.70;;;;;;5034119;28;19921;-89
2023/01/05 09:19:54;;;;;;;;;;;16.20;65.60;;;;;;5035900;28;19923;-91
2023/01/05 09:22:20;;;;;;;;;;;16.20;65.50;;;;;;5034505;28;20494;-89
2023/01/05 09:24:45;;;;;;;;;;;16.20;65.60;;;;;;5032186;28;19925;-90
2023/01/05 09:27:11;;;;;;;;;;;16.10;65.40;;;;;;5042509;28;19916;-89
2023/01/05 09:29:37;;;;;;;;;;;16.20;65.50;;;;;;5036169;28;19921;-90
2023/01/05 09:32:02;;;;;;;;;;;16.20;65.50;;;;;;5040539;28;19988;-91
2023/01/05 09:34:27;;;;;;;;;;;16.20;65.50;;;;;;5025354;28;20760;-88
2023/01/05 09:36:53;;;;;;;;;;;16.20;65.50;;;;;;5030614;28;19917;-91
2023/01/05 09:39:18;;;;;;;;;;;16.20;65.60;;;;;;5032142;28;20026;-90
2023/01/05 09:41:46;;;;;;;;;;;16.10;65.40;;;;;;5030155;28;19913;-90
2023/01/05 09:44:27;;;;;;;;;;;16.10;65.60;;;;;;5027136;28;19921;-89
2023/01/05 09:46:54;;;;;;;;;;;16.10;65.60;;;;;;5037458;28;19917;-90
2023/01/05 09:49:20;;;;;;;;;;;16.10;65.70;;;;;;5042277;28;19924;-90
2023/01/05 09:51:47;;;;;;;;;;;16.10;65.70;;;;;;5035758;28;20000;-90
2023/01/05 09:54:15;;;;;;;;;;;16.10;65.70;;;;;;5034598;28;19921;-90
2023/01/05 09:56:42;;;;;;;;;;;16.10;65.70;;;;;;5025370;28;20352;-89
2023/01/05 09:59:23;;;;;;;;;;;16.10;65.70;;;;;;5030200;28;19943;-91
2023/01/05 10:01:49;;;;;;;;;;;16.10;65.60;;;;;;5033302;28;20011;-90
2023/01/05 10:04:17;;;;;;;;;;;16.00;65.60;;;;;;5036350;28;20363;-90
2023/01/05 10:06:44;;;;;;;;;;;16.00;65.70;;;;;;5026873;28;19917;-88
2023/01/05 10:09:14;;;;;;;;;;;16.00;65.70;;;;;;5035827;28;19999;-91
2023/01/05 10:14:49;;;;;;;;;;;15.90;65.60;;;;;;5039474;28;20295;-90
2023/01/05 10:17:19;;;;;;;;;;;15.90;65.80;;;;;;5039367;28;19917;-88
2023/01/05 10:19:45;;;;;;;;;;;15.90;65.80;;;;;;5043345;28;20563;-91
2023/01/05 10:22:24;;;;;;;;;;;15.90;65.60;;;;;;5034317;28;19917;-91
2023/01/05 10:25:01;;;;;;;;;;;15.90;65.70;;;;;;5032478;28;19943;-89
2023/01/05 10:27:40;;;;;;;;;;;15.90;65.80;;;;;;5036132;28;20040;-91
2023/01/05 10:30:20;;;;;;;;;;;15.90;65.90;;;;;;5040149;28;19923;-88
2023/01/05 10:33:05;;;;;;;;;;;16.00;66.10;;;;;;5034446;28;19920;-91
2023/01/05 10:35:45;;;;;;;;;;;16.00;66.10;;;;;;5034045;28;19925;-89
2023/01/05 10:38:11;;;;;;;;;;;16.10;66.20;;;;;;5031029;28;19921;-88
2023/01/05 10:40:50;;;;;;;;;;;16.20;66.30;;;;;;5041211;28;19916;-90
2023/01/05 10:43:25;;;;;;;;;;;16.30;66.10;;;;;;5036163;28;19921;-87
2023/01/05 10:45:51;;;;;;;;;;;16.40;66.00;;;;;;5045590;28;20622;-89
2023/01/05 10:48:18;;;;;;;;;;;16.50;66.20;;;;;;5042991;28;19921;-90
2023/01/05 10:50:46;;;;;;;;;;;16.60;66.10;;;;;;5035983;28;19924;-90
2023/01/05 10:53:13;;;;;;;;;;;16.80;66.10;;;;;;5045504;28;20299;-88
2023/01/05 10:55:54;;;;;;;;;;;16.90;65.90;;;;;;5048504;28;19931;-89
2023/01/05 10:58:24;;;;;;;;;;;16.90;65.80;;;;;;5050821;28;19917;-89
2023/01/05 11:00:51;;;;;;;;;;;17.00;65.70;;;;;;5044342;28;20368;-88
2023/01/05 11:03:17;;;;;;;;;;;17.00;65.40;;;;;;5028952;28;19936;-89
2023/01/05 11:05:45;;;;;;;;;;;17.00;65.40;;;;;;5048173;28;20039;-89
2023/01/05 11:08:21;;;;;;;;;;;17.00;65.30;;;;;;5039771;28;20036;-90
2023/01/05 11:10:49;;;;;;;;;;;17.00;65.40;;;;;;5048317;28;20239;-90
2023/01/05 11:13:14;;;;;;;;;;;17.00;65.50;;;;;;5049777;28;19917;-90
2023/01/05 11:15:41;;;;;;;;;;;16.90;65.60;;;;;;5047777;28;19924;-91
2023/01/05 11:18:18;;;;;;;;;;;17.00;65.70;;;;;;5049600;28;20066;-91
2023/01/05 11:21:03;;;;;;;;;;;17.00;65.80;;;;;;5048112;28;20015;-91
2023/01/05 11:23:33;;;;;;;;;;;17.10;65.90;;;;;;5047673;28;19923;-90
2023/01/05 11:26:10;;;;;;;;;;;17.10;65.80;;;;;;5047830;28;19917;-90
2023/01/05 11:28:36;;;;;;;;;;;17.20;66.00;;;;;;5049047;28;20577;-90
2023/01/05 11:31:03;;;;;;;;;;;17.40;66.20;;;;;;5051619;28;19923;-91
2023/01/05 11:33:32;;;;;;;;;;;17.50;66.00;;;;;;5047191;28;19916;-91
2023/01/05 11:35:57;;;;;;;;;;;17.70;65.90;;;;;;5028635;28;19952;-91
2023/01/05 11:38:25;;;;;;;;;;;17.80;65.70;;;;;;5028163;28;19983;-90
2023/01/05 11:40:50;;;;;;;;;;;17.80;65.60;;;;;;5046827;28;19917;-89
2023/01/05 11:43:18;;;;;;;;;;;17.90;65.40;;;;;;5049049;28;19917;-89
2023/01/05 11:45:48;;;;;;;;;;;18.00;65.20;;;;;;5049398;28;19963;-90
2023/01/05 11:48:17;;;;;;;;;;;18.00;65.20;;;;;;5048515;28;19913;-90
2023/01/05 11:50:50;;;;;;;;;;;18.00;64.90;;;;;;5048507;28;19964;-91
2023/01/05 11:53:36;;;;;;;;;;;18.00;64.80;;;;;;5050313;28;20477;-90
2023/01/05 11:56:16;;;;;;;;;;;18.00;64.60;;;;;;5048818;28;19921;-90
2023/01/05 11:58:43;;;;;;;;;;;17.90;64.70;;;;;;5047746;28;19927;-90
2023/01/05 12:01:33;;;;;;;;;;;17.90;64.50;;;;;;5049233;28;19927;-90
2023/01/05 12:04:05;;;;;;;;;;;17.80;64.40;;;;;;5047421;28;19972;-90
2023/01/05 12:06:48;;;;;;;;;;;17.80;64.60;;;;;;5047158;28;20279;-91
2023/01/05 12:09:13;;;;;;;;;;;17.80;64.60;;;;;;5037489;28;19920;-91
2023/01/05 12:11:57;;;;;;;;;;;17.70;64.50;;;;;;5047813;28;19919;-90
2023/01/05 12:14:42;;;;;;;;;;;17.80;64.60;;;;;;5046714;28;19920;-90
2023/01/05 12:17:28;;;;;;;;;;;17.70;64.60;;;;;;5048174;28;19913;-88
2023/01/05 12:20:17;;;;;;;;;;;17.70;64.80;;;;;;5024333;28;19964;-90
2023/01/05 12:22:56;;;;;;;;;;;17.70;64.60;;;;;;5027953;28;20299;-90
2023/01/05 12:25:25;;;;;;;;;;;17.70;64.70;;;;;;5042714;28;19962;-90
2023/01/05 12:28:09;;;;;;;;;;;17.70;64.70;;;;;;5048815;28;19968;-90
2023/01/05 12:30:53;;;;;;;;;;;17.70;64.90;;;;;;5048023;28;19913;-89
2023/01/05 12:33:24;;;;;;;;;;;17.70;64.90;;;;;;5046223;28;19920;-90
2023/01/05 12:35:57;;;;;;;;;;;17.70;64.90;;;;;;5047523;28;19932;-90
2023/01/05 12:38:29;;;;;;;;;;;17.80;64.80;;;;;;5047074;28;19917;-90
2023/01/05 12:41:24;;;;;;;;;;;17.80;64.90;;;;;;5045000;28;19917;-91
2023/01/05 12:44:04;;;;;;;;;;;17.80;64.80;;;;;;5040060;28;20007;-90
2023/01/05 12:46:41;;;;;;;;;;;17.80;64.80;;;;;;5028662;28;19917;-90
2023/01/05 12:49:24;;;;;;;;;;;17.90;64.90;;;;;;5033666;28;19943;-90
2023/01/05 12:51:54;;;;;;;;;;;18.00;64.90;;;;;;5048040;28;19963;-89
2023/01/05 12:54:29;;;;;;;;;;;18.00;64.90;;;;;;5041517;28;19967;-90
2023/01/05 12:57:00;;;;;;;;;;;18.00;64.70;;;;;;5027712;28;19917;-90
2023/01/05 12:59:37;;;;;;;;;;;18.00;64.70;;;;;;5033869;28;20383;-91
2023/01/05 13:02:06;;;;;;;;;;;18.00;64.80;;;;;;5030452;28;19918;-91
2023/01/05 13:04:40;;;;;;;;;;;18.00;64.70;;;;;;5036414;28;19917;-92
2023/01/05 13:07:08;;;;;;;;;;;18.00;64.80;;;;;;5051132;28;19921;-90
2023/01/05 13:09:34;;;;;;;;;;;18.10;64.70;;;;;;5034483;28;20658;-89
2023/01/05 13:12:18;;;;;;;;;;;18.00;64.50;;;;;;5049165;28;19916;-90
2023/01/05 13:14:52;;;;;;;;;;;18.00;64.30;;;;;;5047082;28;20051;-90
2023/01/05 13:17:31;;;;;;;;;;;17.90;64.30;;;;;;5047636;28;20017;-91
2023/01/05 13:20:02;;;;;;;;;;;17.80;64.20;;;;;;5045891;28;19917;-91
2023/01/05 13:22:30;;;;;;;;;;;17.80;64.30;;;;;;5045996;28;20034;-91
2023/01/05 13:25:02;;;;;;;;;;;17.70;64.60;;;;;;5047323;28;19916;-90
2023/01/05 13:27:29;;;;;;;;;;;17.60;64.60;;;;;;5047251;28;19916;-91
2023/01/05 13:29:58;;;;;;;;;;;17.60;64.30;;;;;;5048627;28;19920;-91
2023/01/05 13:32:31;;;;;;;;;;;17.60;64.70;;;;;;5040653;28;20668;-90
2023/01/05 13:35:08;;;;;;;;;;;17.60;64.80;;;;;;5046904;28;19936;-93
2023/01/05 13:37:38;;;;;;;;;;;17.70;64.80;;;;;;5047965;28;19921;-92
2023/01/05 13:40:13;;;;;;;;;;;17.70;64.70;;;;;;5048292;28;20310;-91
2023/01/05 13:42:59;;;;;;;;;;;17.70;64.60;;;;;;5046873;28;19921;-90
2023/01/05 13:45:29;;;;;;;;;;;17.70;64.70;;;;;;5047446;28;19917;-90
2023/01/05 13:47:59;;;;;;;;;;;17.70;64.60;;;;;;5047712;28;19916;-91
2023/01/05 13:50:31;;;;;;;;;;;17.70;64.60;;;;;;5048719;28;19920;-91
2023/01/05 13:53:03;;;;;;;;;;;17.70;64.70;;;;;;5048068;28;20391;-91
2023/01/05 13:55:31;;;;;;;;;;;17.70;64.70;;;;;;5048181;28;19996;-90
2023/01/05 13:57:57;;;;;;;;;;;17.70;64.50;;;;;;5046793;28;20300;-89
2023/01/05 14:00:22;;;;;;;;;;;17.70;64.70;;;;;;5043900;28;19912;-90
2023/01/05 14:02:57;;;;;;;;;;;17.60;64.60;;;;;;5025661;28;19928;-91
2023/01/05 14:05:30;;;;;;;;;;;17.60;64.50;;;;;;5043124;28;19916;-87
2023/01/05 14:07:57;;;;;;;;;;;17.60;64.50;;;;;;5041464;28;19925;-88
2023/01/05 14:10:30;;;;;;;;;;;17.50;64.40;;;;;;5028627;28;19964;-90
2023/01/05 14:12:56;;;;;;;;;;;17.40;64.30;;;;;;5035121;28;19925;-90
2023/01/05 14:15:28;;;;;;;;;;;17.40;64.50;;;;;;5027145;28;20016;-89
2023/01/05 14:17:56;;;;;;;;;;;17.40;64.60;;;;;;5026794;28;19921;-91
2023/01/05 14:20:28;;;;;;;;;;;17.30;64.60;;;;;;5029971;28;19918;-90
2023/01/05 14:22:56;;;;;;;;;;;17.30;64.50;;;;;;5033813;28;19973;-91
2023/01/05 14:25:37;;;;;;;;;;;17.30;64.50;;;;;;5032324;28;20445;-90
2023/01/05 14:28:19;;;;;;;;;;;17.20;64.50;;;;;;5025550;28;19928;-89
2023/01/05 14:30:45;;;;;;;;;;;17.20;64.60;;;;;;5040881;28;19924;-88
2023/01/05 14:33:11;;;;;;;;;;;17.20;64.60;;;;;;5046635;28;20405;-90
2023/01/05 14:35:36;;;;;;;;;;;17.10;64.50;;;;;;5031995;28;20051;-89
2023/01/05 14:38:13;;;;;;;;;;;17.10;64.50;;;;;;5037411;28;19939;-90
2023/01/05 14:41:02;;;;;;;;;;;17.10;64.50;;;;;;5030032;28;20354;-89
2023/01/05 14:43:30;;;;;;;;;;;17.00;64.40;;;;;;5032585;28;19923;-88
2023/01/05 14:46:06;;;;;;;;;;;16.90;64.40;;;;;;5035483;28;19936;-89
2023/01/05 14:48:36;;;;;;;;;;;16.90;64.40;;;;;;5025362;28;19917;-90
2023/01/05 14:51:16;;;;;;;;;;;16.80;64.30;;;;;;5031535;28;19921;-90
2023/01/05 14:53:44;;;;;;;;;;;16.80;64.40;;;;;;5032534;28;19952;-89
2023/01/05 14:56:14;;;;;;;;;;;16.70;64.40;;;;;;5028010;28;19986;-90